sensor_id;sensor_type;location;lat;lon;timestamp;temperature;humidity
34095;DHT22;20372;47.080;15.410;2022-10-29T00:00:55;10.60;99.90
34095;DHT22;20372;47.080;15.410;2022-10-29T00:03:21;10.60;99.90
34095;DHT22;20372;47.080;15.410;2022-10-29T00:05:54;10.60;99.90
34095;DHT22;20372;47.080;15.410;2022-10-29T00:08:19;10.50;99.90
34095;DHT22;20372;47.080;15.410;2022-10-29T00:10:45;10.50;99.90
34095;DHT22;20372;47.080;15.410;2022-10-29T00:13:10;10.60;99.90
34095;DHT22;20372;47.080;15.410;2022-10-29T00:15:39;10.40;99.90
34095;DHT22;20372;47.080;15.410;2022-10-29T00:18:04;10.50;99.90
34095;DHT22;20372;47.080;15.410;2022-10-29T00:20:30;10.50;99.90
34095;DHT22;20372;47.080;15.410;2022-10-29T00:22:56;10.60;99.90
34095;DHT22;20372;47.080;15.410;2022-10-29T00:25:21;10.60;99.90
34095;DHT22;20372;47.080;15.410;2022-10-29T00:27:47;10.60;99.90
34095;DHT22;20372;47.080;15.410;2022-10-29T00:30:12;10.60;99.90
34095;DHT22;20372;47.080;15.410;2022-10-29T00:32:38;10.60;99.90
34095;DHT22;20372;47.080;15.410;2022-10-29T00:35:03;10.60;99.90
34095;DHT22;20372;47.080;15.410;2022-10-29T00:37:29;10.60;99.90
34095;DHT22;20372;47.080;15.410;2022-10-29T00:39:55;10.60;99.90
34095;DHT22;20372;47.080;15.410;2022-10-29T00:42:20;10.80;99.90
34095;DHT22;20372;47.080;15.410;2022-10-29T00:44:46;10.80;99.90
34095;DHT22;20372;47.080;15.410;2022-10-29T00:47:22;10.90;99.90
34095;DHT22;20372;47.080;15.410;2022-10-29T00:50:10;10.90;99.90
34095;DHT22;20372;47.080;15.410;2022-10-29T00:52:34;10.80;99.90
34095;DHT22;20372;47.080;15.410;2022-10-29T00:55:04;10.90;99.90
34095;DHT22;20372;47.080;15.410;2022-10-29T00:57:35;10.80;99.90
34095;DHT22;20372;47.080;15.410;2022-10-29T01:00:02;10.70;99.90
34095;DHT22;20372;47.080;15.410;2022-10-29T01:02:28;10.60;99.90
34095;DHT22;20372;47.080;15.410;2022-10-29T01:04:56;10.60;99.90
34095;DHT22;20372;47.080;15.410;2022-10-29T01:07:21;10.60;99.90
34095;DHT22;20372;47.080;15.410;2022-10-29T01:09:47;10.60;99.90
34095;DHT22;20372;47.080;15.410;2022-10-29T01:22:27;10.90;99.90
34095;DHT22;20372;47.080;15.410;2022-10-29T01:30:10;10.90;99.90
34095;DHT22;20372;47.080;15.410;2022-10-29T01:40:32;10.90;99.90
34095;DHT22;20372;47.080;15.410;2022-10-29T01:47:57;10.80;99.90
34095;DHT22;20372;47.080;15.410;2022-10-29T01:50:23;10.90;99.90
34095;DHT22;20372;47.080;15.410;2022-10-29T01:52:50;10.80;99.90
34095;DHT22;20372;47.080;15.410;2022-10-29T01:55:21;10.80;99.90
34095;DHT22;20372;47.080;15.410;2022-10-29T01:57:47;10.90;99.90
34095;DHT22;20372;47.080;15.410;2022-10-29T02:00:14;10.80;99.90
34095;DHT22;20372;47.080;15.410;2022-10-29T02:07:44;10.50;99.90
34095;DHT22;20372;47.080;15.410;2022-10-29T02:12:43;10.60;99.90
34095;DHT22;20372;47.080;15.410;2022-10-29T02:15:56;10.70;99.90
34095;DHT22;20372;47.080;15.410;2022-10-29T02:18:03;10.80;99.90
34095;DHT22;20372;47.080;15.410;2022-10-29T02:20:29;10.70;99.90
34095;DHT22;20372;47.080;15.410;2022-10-29T02:22:55;10.70;99.90
34095;DHT22;20372;47.080;15.410;2022-10-29T02:25:20;10.70;99.90
34095;DHT22;20372;47.080;15.410;2022-10-29T02:27:46;10.60;99.90
34095;DHT22;20372;47.080;15.410;2022-10-29T02:30:12;10.70;99.90
34095;DHT22;20372;47.080;15.410;2022-10-29T02:32:37;10.70;99.90
34095;DHT22;20372;47.080;15.410;2022-10-29T02:35:03;10.70;99.90
34095;DHT22;20372;47.080;15.410;2022-10-29T02:37:29;10.70;99.90
34095;DHT22;20372;47.080;15.410;2022-10-29T02:39:54;10.60;99.90
34095;DHT22;20372;47.080;15.410;2022-10-29T02:42:20;10.70;99.90
34095;DHT22;20372;47.080;15.410;2022-10-29T02:44:46;10.60;99.90
34095;DHT22;20372;47.080;15.410;2022-10-29T02:47:12;10.60;99.90
34095;DHT22;20372;47.080;15.410;2022-10-29T02:49:37;10.50;99.90
34095;DHT22;20372;47.080;15.410;2022-10-29T02:52:03;10.50;99.90
34095;DHT22;20372;47.080;15.410;2022-10-29T02:54:28;10.50;99.90
34095;DHT22;20372;47.080;15.410;2022-10-29T02:56:54;10.50;99.90
34095;DHT22;20372;47.080;15.410;2022-10-29T02:59:19;10.50;99.90
34095;DHT22;20372;47.080;15.410;2022-10-29T03:01:45;10.50;99.90
34095;DHT22;20372;47.080;15.410;2022-10-29T03:04:10;10.50;99.90
34095;DHT22;20372;47.080;15.410;2022-10-29T03:06:36;10.30;99.90
34095;DHT22;20372;47.080;15.410;2022-10-29T03:09:02;10.40;99.90
34095;DHT22;20372;47.080;15.410;2022-10-29T03:11:28;10.40;99.90
34095;DHT22;20372;47.080;15.410;2022-10-29T03:13:53;10.30;99.90
34095;DHT22;20372;47.080;15.410;2022-10-29T03:16:19;10.20;99.90
34095;DHT22;20372;47.080;15.410;2022-10-29T03:18:44;10.20;99.90
34095;DHT22;20372;47.080;15.410;2022-10-29T03:21:10;10.20;99.90
34095;DHT22;20372;47.080;15.410;2022-10-29T03:23:35;10.30;99.90
34095;DHT22;20372;47.080;15.410;2022-10-29T03:26:01;10.30;99.90
34095;DHT22;20372;47.080;15.410;2022-10-29T03:28:27;10.20;99.90
34095;DHT22;20372;47.080;15.410;2022-10-29T03:30:53;10.20;99.90
34095;DHT22;20372;47.080;15.410;2022-10-29T03:33:18;10.30;99.90
34095;DHT22;20372;47.080;15.410;2022-10-29T03:35:44;10.30;99.90
34095;DHT22;20372;47.080;15.410;2022-10-29T03:38:09;10.40;99.90
34095;DHT22;20372;47.080;15.410;2022-10-29T03:40:35;10.30;99.90
34095;DHT22;20372;47.080;15.410;2022-10-29T03:43:01;10.30;99.90
34095;DHT22;20372;47.080;15.410;2022-10-29T03:45:26;10.30;99.90
34095;DHT22;20372;47.080;15.410;2022-10-29T03:47:52;10.20;99.90
34095;DHT22;20372;47.080;15.410;2022-10-29T03:50:17;10.30;99.90
34095;DHT22;20372;47.080;15.410;2022-10-29T03:52:43;10.20;99.90
34095;DHT22;20372;47.080;15.410;2022-10-29T03:55:09;10.20;99.90
34095;DHT22;20372;47.080;15.410;2022-10-29T03:57:34;10.10;99.90
34095;DHT22;20372;47.080;15.410;2022-10-29T04:00:00;10.10;99.90
34095;DHT22;20372;47.080;15.410;2022-10-29T04:02:25;10.00;99.90
34095;DHT22;20372;47.080;15.410;2022-10-29T04:04:51;10.10;99.90
34095;DHT22;20372;47.080;15.410;2022-10-29T04:07:17;10.10;99.90
34095;DHT22;20372;47.080;15.410;2022-10-29T04:09:43;10.00;99.90
34095;DHT22;20372;47.080;15.410;2022-10-29T04:12:08;10.00;99.90
34095;DHT22;20372;47.080;15.410;2022-10-29T04:14:34;9.90;99.90
34095;DHT22;20372;47.080;15.410;2022-10-29T04:16:59;9.90;99.90
34095;DHT22;20372;47.080;15.410;2022-10-29T04:19:25;9.90;99.90
34095;DHT22;20372;47.080;15.410;2022-10-29T04:21:51;9.80;99.90
34095;DHT22;20372;47.080;15.410;2022-10-29T04:24:16;9.80;99.90
34095;DHT22;20372;47.080;15.410;2022-10-29T04:26:42;9.80;99.90
34095;DHT22;20372;47.080;15.410;2022-10-29T04:29:07;9.80;99.90
34095;DHT22;20372;47.080;15.410;2022-10-29T04:31:33;9.90;99.90
34095;DHT22;20372;47.080;15.410;2022-10-29T04:33:59;9.90;99.90
34095;DHT22;20372;47.080;15.410;2022-10-29T04:36:24;9.90;99.90
34095;DHT22;20372;47.080;15.410;2022-10-29T04:38:50;9.90;99.90
34095;DHT22;20372;47.080;15.410;2022-10-29T04:41:15;9.90;99.90
34095;DHT22;20372;47.080;15.410;2022-10-29T04:43:41;9.90;99.90
34095;DHT22;20372;47.080;15.410;2022-10-29T04:46:08;9.90;99.90
34095;DHT22;20372;47.080;15.410;2022-10-29T04:48:34;9.90;99.90
34095;DHT22;20372;47.080;15.410;2022-10-29T04:51:00;9.80;99.90
34095;DHT22;20372;47.080;15.410;2022-10-29T04:53:25;9.90;99.90
34095;DHT22;20372;47.080;15.410;2022-10-29T04:55:51;9.90;99.90
34095;DHT22;20372;47.080;15.410;2022-10-29T04:58:22;10.00;99.90
34095;DHT22;20372;47.080;15.410;2022-10-29T05:00:48;9.90;99.90
34095;DHT22;20372;47.080;15.410;2022-10-29T05:03:13;9.90;99.90
34095;DHT22;20372;47.080;15.410;2022-10-29T05:05:39;9.90;99.90
34095;DHT22;20372;47.080;15.410;2022-10-29T05:08:05;9.90;99.90
34095;DHT22;20372;47.080;15.410;2022-10-29T05:10:34;9.80;99.90
34095;DHT22;20372;47.080;15.410;2022-10-29T05:13:10;9.90;99.90
34095;DHT22;20372;47.080;15.410;2022-10-29T05:15:36;9.80;99.90
34095;DHT22;20372;47.080;15.410;2022-10-29T05:18:02;9.90;99.90
34095;DHT22;20372;47.080;15.410;2022-10-29T05:20:28;9.80;99.90
34095;DHT22;20372;47.080;15.410;2022-10-29T05:22:57;9.80;99.90
34095;DHT22;20372;47.080;15.410;2022-10-29T05:25:23;9.70;99.90
34095;DHT22;20372;47.080;15.410;2022-10-29T05:27:48;9.70;99.90
34095;DHT22;20372;47.080;15.410;2022-10-29T05:30:14;9.80;99.90
34095;DHT22;20372;47.080;15.410;2022-10-29T05:32:39;9.70;99.90
34095;DHT22;20372;47.080;15.410;2022-10-29T05:35:05;9.70;99.90
34095;DHT22;20372;47.080;15.410;2022-10-29T05:37:31;9.70;99.90
34095;DHT22;20372;47.080;15.410;2022-10-29T05:39:56;9.70;99.90
34095;DHT22;20372;47.080;15.410;2022-10-29T05:42:22;9.60;99.90
34095;DHT22;20372;47.080;15.410;2022-10-29T05:44:47;9.60;99.90
34095;DHT22;20372;47.080;15.410;2022-10-29T05:47:13;9.60;99.90
34095;DHT22;20372;47.080;15.410;2022-10-29T05:49:38;9.60;99.90
34095;DHT22;20372;47.080;15.410;2022-10-29T05:52:04;9.60;99.90
34095;DHT22;20372;47.080;15.410;2022-10-29T05:54:29;9.60;99.90
34095;DHT22;20372;47.080;15.410;2022-10-29T05:56:56;9.70;99.90
34095;DHT22;20372;47.080;15.410;2022-10-29T05:59:22;9.70;99.90
34095;DHT22;20372;47.080;15.410;2022-10-29T06:01:48;9.70;99.90
34095;DHT22;20372;47.080;15.410;2022-10-29T06:04:13;9.80;99.90
34095;DHT22;20372;47.080;15.410;2022-10-29T06:06:39;9.90;99.90
34095;DHT22;20372;47.080;15.410;2022-10-29T06:09:05;9.90;99.90
34095;DHT22;20372;47.080;15.410;2022-10-29T06:11:30;10.00;99.90
34095;DHT22;20372;47.080;15.410;2022-10-29T06:13:56;9.90;99.90
34095;DHT22;20372;47.080;15.410;2022-10-29T06:16:22;9.80;99.90
34095;DHT22;20372;47.080;15.410;2022-10-29T06:18:47;9.90;99.90
34095;DHT22;20372;47.080;15.410;2022-10-29T06:21:13;10.00;99.90
34095;DHT22;20372;47.080;15.410;2022-10-29T06:23:38;10.10;99.90
34095;DHT22;20372;47.080;15.410;2022-10-29T06:26:04;10.00;99.90
34095;DHT22;20372;47.080;15.410;2022-10-29T06:28:30;10.10;99.90
34095;DHT22;20372;47.080;15.410;2022-10-29T06:30:55;10.30;99.90
34095;DHT22;20372;47.080;15.410;2022-10-29T06:33:21;10.30;99.90
34095;DHT22;20372;47.080;15.410;2022-10-29T06:35:47;10.30;99.90
34095;DHT22;20372;47.080;15.410;2022-10-29T06:38:12;10.20;99.90
34095;DHT22;20372;47.080;15.410;2022-10-29T06:40:38;10.20;99.90
34095;DHT22;20372;47.080;15.410;2022-10-29T06:43:05;10.20;99.90
34095;DHT22;20372;47.080;15.410;2022-10-29T06:45:31;10.20;99.90
34095;DHT22;20372;47.080;15.410;2022-10-29T06:47:57;10.20;99.90
34095;DHT22;20372;47.080;15.410;2022-10-29T06:50:23;10.30;99.90
34095;DHT22;20372;47.080;15.410;2022-10-29T06:55:20;10.50;99.90
34095;DHT22;20372;47.080;15.410;2022-10-29T06:57:46;10.60;99.90
34095;DHT22;20372;47.080;15.410;2022-10-29T07:00:11;10.70;99.90
34095;DHT22;20372;47.080;15.410;2022-10-29T07:02:37;10.70;99.90
34095;DHT22;20372;47.080;15.410;2022-10-29T07:05:03;10.70;99.90
34095;DHT22;20372;47.080;15.410;2022-10-29T07:07:28;10.90;99.90
34095;DHT22;20372;47.080;15.410;2022-10-29T07:09:54;11.00;99.90
34095;DHT22;20372;47.080;15.410;2022-10-29T07:12:19;11.10;99.90
34095;DHT22;20372;47.080;15.410;2022-10-29T07:14:45;11.10;99.90
34095;DHT22;20372;47.080;15.410;2022-10-29T07:17:11;11.20;99.90
34095;DHT22;20372;47.080;15.410;2022-10-29T07:19:36;11.20;99.90
34095;DHT22;20372;47.080;15.410;2022-10-29T07:22:02;11.30;99.90
34095;DHT22;20372;47.080;15.410;2022-10-29T07:24:27;11.20;99.90
34095;DHT22;20372;47.080;15.410;2022-10-29T07:26:53;11.40;99.90
34095;DHT22;20372;47.080;15.410;2022-10-29T07:29:18;11.50;99.90
34095;DHT22;20372;47.080;15.410;2022-10-29T07:31:44;11.60;99.90
34095;DHT22;20372;47.080;15.410;2022-10-29T07:34:10;11.70;99.90
34095;DHT22;20372;47.080;15.410;2022-10-29T07:36:36;11.70;99.90
34095;DHT22;20372;47.080;15.410;2022-10-29T07:39:01;11.80;99.90
34095;DHT22;20372;47.080;15.410;2022-10-29T07:41:28;11.90;99.90
34095;DHT22;20372;47.080;15.410;2022-10-29T07:43:53;11.90;99.90
34095;DHT22;20372;47.080;15.410;2022-10-29T07:46:19;11.90;99.90
34095;DHT22;20372;47.080;15.410;2022-10-29T07:48:44;11.90;99.90
34095;DHT22;20372;47.080;15.410;2022-10-29T07:51:11;11.90;99.90
34095;DHT22;20372;47.080;15.410;2022-10-29T07:53:36;12.00;99.90
34095;DHT22;20372;47.080;15.410;2022-10-29T07:56:02;11.90;99.90
34095;DHT22;20372;47.080;15.410;2022-10-29T07:58:27;11.90;99.90
34095;DHT22;20372;47.080;15.410;2022-10-29T08:00:53;12.00;99.90
34095;DHT22;20372;47.080;15.410;2022-10-29T08:03:19;12.00;99.90
34095;DHT22;20372;47.080;15.410;2022-10-29T08:05:45;12.20;99.90
34095;DHT22;20372;47.080;15.410;2022-10-29T08:08:13;12.20;99.90
34095;DHT22;20372;47.080;15.410;2022-10-29T08:10:39;12.20;99.90
34095;DHT22;20372;47.080;15.410;2022-10-29T08:13:05;12.60;99.90
34095;DHT22;20372;47.080;15.410;2022-10-29T08:15:31;12.90;99.90
34095;DHT22;20372;47.080;15.410;2022-10-29T08:17:57;12.90;99.90
34095;DHT22;20372;47.080;15.410;2022-10-29T08:20:23;13.30;99.90
34095;DHT22;20372;47.080;15.410;2022-10-29T08:22:50;13.20;99.90
34095;DHT22;20372;47.080;15.410;2022-10-29T08:25:16;13.60;99.90
34095;DHT22;20372;47.080;15.410;2022-10-29T08:27:42;13.70;99.90
34095;DHT22;20372;47.080;15.410;2022-10-29T08:30:12;13.50;99.90
34095;DHT22;20372;47.080;15.410;2022-10-29T08:32:47;13.30;99.90
34095;DHT22;20372;47.080;15.410;2022-10-29T08:35:12;13.80;99.90
34095;DHT22;20372;47.080;15.410;2022-10-29T08:37:42;14.00;99.90
34095;DHT22;20372;47.080;15.410;2022-10-29T08:50:23;13.80;99.90
34095;DHT22;20372;47.080;15.410;2022-10-29T08:52:50;13.40;99.90
34095;DHT22;20372;47.080;15.410;2022-10-29T08:57:55;13.40;99.90
34095;DHT22;20372;47.080;15.410;2022-10-29T09:00:21;13.70;99.90
34095;DHT22;20372;47.080;15.410;2022-10-29T09:02:51;14.30;99.90
34095;DHT22;20372;47.080;15.410;2022-10-29T09:05:18;14.30;99.90
34095;DHT22;20372;47.080;15.410;2022-10-29T09:08:28;14.20;99.90
34095;DHT22;20372;47.080;15.410;2022-10-29T09:10:39;14.20;99.90
34095;DHT22;20372;47.080;15.410;2022-10-29T09:15:59;14.70;99.90
34095;DHT22;20372;47.080;15.410;2022-10-29T09:26:19;15.40;99.90
34095;DHT22;20372;47.080;15.410;2022-10-29T09:33:56;16.10;99.90
34095;DHT22;20372;47.080;15.410;2022-10-29T09:36:23;16.10;99.90
34095;DHT22;20372;47.080;15.410;2022-10-29T09:38:58;15.90;99.90
34095;DHT22;20372;47.080;15.410;2022-10-29T09:41:29;15.70;99.90
34095;DHT22;20372;47.080;15.410;2022-10-29T09:44:01;15.80;99.90
34095;DHT22;20372;47.080;15.410;2022-10-29T09:51:55;16.50;99.90
34095;DHT22;20372;47.080;15.410;2022-10-29T09:54:22;16.70;99.90
34095;DHT22;20372;47.080;15.410;2022-10-29T09:56:49;16.60;99.90
34095;DHT22;20372;47.080;15.410;2022-10-29T10:01:46;15.70;99.90
34095;DHT22;20372;47.080;15.410;2022-10-29T10:04:14;16.10;99.90
34095;DHT22;20372;47.080;15.410;2022-10-29T10:09:27;16.20;99.90
34095;DHT22;20372;47.080;15.410;2022-10-29T10:11:53;16.30;99.90
34095;DHT22;20372;47.080;15.410;2022-10-29T10:14:23;16.80;99.90
34095;DHT22;20372;47.080;15.410;2022-10-29T10:16:56;17.00;99.90
34095;DHT22;20372;47.080;15.410;2022-10-29T10:19:24;17.30;99.90
34095;DHT22;20372;47.080;15.410;2022-10-29T10:21:57;17.30;99.90
34095;DHT22;20372;47.080;15.410;2022-10-29T10:24:36;17.60;99.90
34095;DHT22;20372;47.080;15.410;2022-10-29T10:29:43;18.00;99.90
34095;DHT22;20372;47.080;15.410;2022-10-29T10:32:29;18.20;99.90
34095;DHT22;20372;47.080;15.410;2022-10-29T10:34:54;17.90;99.90
34095;DHT22;20372;47.080;15.410;2022-10-29T10:37:20;17.30;99.90
34095;DHT22;20372;47.080;15.410;2022-10-29T10:39:48;17.10;99.90
34095;DHT22;20372;47.080;15.410;2022-10-29T10:42:16;17.50;99.90
34095;DHT22;20372;47.080;15.410;2022-10-29T10:44:47;17.50;99.90
34095;DHT22;20372;47.080;15.410;2022-10-29T10:47:13;17.70;99.90
34095;DHT22;20372;47.080;15.410;2022-10-29T10:49:41;17.70;99.90
34095;DHT22;20372;47.080;15.410;2022-10-29T10:52:27;18.00;99.90
34095;DHT22;20372;47.080;15.410;2022-10-29T10:54:57;17.90;99.90
34095;DHT22;20372;47.080;15.410;2022-10-29T10:57:28;18.10;99.90
34095;DHT22;20372;47.080;15.410;2022-10-29T11:00:08;18.60;99.90
34095;DHT22;20372;47.080;15.410;2022-10-29T11:05:17;18.40;99.90
34095;DHT22;20372;47.080;15.410;2022-10-29T11:07:48;18.70;99.90
34095;DHT22;20372;47.080;15.410;2022-10-29T11:10:15;18.50;99.90
34095;DHT22;20372;47.080;15.410;2022-10-29T11:12:45;18.20;99.90
34095;DHT22;20372;47.080;15.410;2022-10-29T11:17:45;18.80;99.90
34095;DHT22;20372;47.080;15.410;2022-10-29T11:20:14;18.70;99.90
34095;DHT22;20372;47.080;15.410;2022-10-29T11:22:53;19.10;99.90
34095;DHT22;20372;47.080;15.410;2022-10-29T11:25:35;19.10;99.90
34095;DHT22;20372;47.080;15.410;2022-10-29T11:28:17;19.00;99.90
34095;DHT22;20372;47.080;15.410;2022-10-29T11:31:04;19.00;99.90
34095;DHT22;20372;47.080;15.410;2022-10-29T11:33:42;19.30;99.90
34095;DHT22;20372;47.080;15.410;2022-10-29T11:36:20;19.50;99.90
34095;DHT22;20372;47.080;15.410;2022-10-29T11:38:51;19.40;99.90
34095;DHT22;20372;47.080;15.410;2022-10-29T11:43:46;19.60;99.90
34095;DHT22;20372;47.080;15.410;2022-10-29T11:51:27;20.00;99.90
34095;DHT22;20372;47.080;15.410;2022-10-29T11:59:04;19.70;99.90
34095;DHT22;20372;47.080;15.410;2022-10-29T12:04:00;20.10;99.90
34095;DHT22;20372;47.080;15.410;2022-10-29T12:06:31;20.30;99.90
34095;DHT22;20372;47.080;15.410;2022-10-29T12:14:27;20.70;99.90
34095;DHT22;20372;47.080;15.410;2022-10-29T12:17:00;20.60;99.90
34095;DHT22;20372;47.080;15.410;2022-10-29T12:21:57;20.00;99.90
34095;DHT22;20372;47.080;15.410;2022-10-29T12:29:34;20.20;99.90
34095;DHT22;20372;47.080;15.410;2022-10-29T12:34:40;19.90;99.90
34095;DHT22;20372;47.080;15.410;2022-10-29T12:37:27;20.10;99.90
34095;DHT22;20372;47.080;15.410;2022-10-29T12:40:21;20.40;99.90
34095;DHT22;20372;47.080;15.410;2022-10-29T12:42:48;20.80;99.90
34095;DHT22;20372;47.080;15.410;2022-10-29T12:50:22;20.90;99.90
34095;DHT22;20372;47.080;15.410;2022-10-29T12:52:59;21.00;99.90
34095;DHT22;20372;47.080;15.410;2022-10-29T12:55:26;20.90;99.90
34095;DHT22;20372;47.080;15.410;2022-10-29T12:57:52;21.00;99.90
34095;DHT22;20372;47.080;15.410;2022-10-29T13:02:50;21.20;99.90
34095;DHT22;20372;47.080;15.410;2022-10-29T13:15:23;21.10;99.90
34095;DHT22;20372;47.080;15.410;2022-10-29T13:17:51;21.20;99.90
34095;DHT22;20372;47.080;15.410;2022-10-29T13:20:20;21.40;99.90
34095;DHT22;20372;47.080;15.410;2022-10-29T13:27:56;21.60;99.90
34095;DHT22;20372;47.080;15.410;2022-10-29T13:30:22;21.50;99.90
34095;DHT22;20372;47.080;15.410;2022-10-29T13:32:52;21.30;99.90
34095;DHT22;20372;47.080;15.410;2022-10-29T13:37:47;21.10;99.90
34095;DHT22;20372;47.080;15.410;2022-10-29T13:45:31;21.10;99.90
34095;DHT22;20372;47.080;15.410;2022-10-29T13:47:59;20.90;99.90
34095;DHT22;20372;47.080;15.410;2022-10-29T13:50:26;20.80;99.90
34095;DHT22;20372;47.080;15.410;2022-10-29T13:52:52;20.80;99.90
34095;DHT22;20372;47.080;15.410;2022-10-29T13:55:20;20.80;99.90
34095;DHT22;20372;47.080;15.410;2022-10-29T14:00:21;20.80;99.90
34095;DHT22;20372;47.080;15.410;2022-10-29T14:02:49;20.80;99.90
34095;DHT22;20372;47.080;15.410;2022-10-29T14:05:20;20.80;99.90
34095;DHT22;20372;47.080;15.410;2022-10-29T14:10:17;20.70;99.90
34095;DHT22;20372;47.080;15.410;2022-10-29T14:12:45;20.70;99.90
34095;DHT22;20372;47.080;15.410;2022-10-29T14:15:12;20.70;99.90
34095;DHT22;20372;47.080;15.410;2022-10-29T14:17:39;20.70;99.90
34095;DHT22;20372;47.080;15.410;2022-10-29T14:20:17;20.60;99.90
34095;DHT22;20372;47.080;15.410;2022-10-29T14:22:43;20.50;99.90
34095;DHT22;20372;47.080;15.410;2022-10-29T14:25:29;20.40;99.90
34095;DHT22;20372;47.080;15.410;2022-10-29T14:30:39;20.20;99.90
34095;DHT22;20372;47.080;15.410;2022-10-29T14:33:24;20.20;99.90
34095;DHT22;20372;47.080;15.410;2022-10-29T14:35:49;20.10;99.90
34095;DHT22;20372;47.080;15.410;2022-10-29T14:38:16;20.10;99.90
34095;DHT22;20372;47.080;15.410;2022-10-29T14:40:42;20.10;99.90
34095;DHT22;20372;47.080;15.410;2022-10-29T14:43:18;20.10;99.90
34095;DHT22;20372;47.080;15.410;2022-10-29T14:45:46;20.00;99.90
34095;DHT22;20372;47.080;15.410;2022-10-29T14:48:12;19.90;99.90
34095;DHT22;20372;47.080;15.410;2022-10-29T14:50:43;19.80;99.90
34095;DHT22;20372;47.080;15.410;2022-10-29T14:53:31;19.80;99.90
34095;DHT22;20372;47.080;15.410;2022-10-29T14:55:55;19.80;99.90
34095;DHT22;20372;47.080;15.410;2022-10-29T14:58:22;19.70;99.90
34095;DHT22;20372;47.080;15.410;2022-10-29T15:00:57;19.60;99.90
34095;DHT22;20372;47.080;15.410;2022-10-29T15:03:23;19.50;99.90
34095;DHT22;20372;47.080;15.410;2022-10-29T15:05:50;19.40;99.90
34095;DHT22;20372;47.080;15.410;2022-10-29T15:08:16;19.40;99.90
34095;DHT22;20372;47.080;15.410;2022-10-29T15:16:07;19.10;99.90
34095;DHT22;20372;47.080;15.410;2022-10-29T15:18:33;19.00;99.90
34095;DHT22;20372;47.080;15.410;2022-10-29T15:20:59;18.90;99.90
34095;DHT22;20372;47.080;15.410;2022-10-29T15:26:01;18.70;99.90
34095;DHT22;20372;47.080;15.410;2022-10-29T15:28:35;18.70;99.90
34095;DHT22;20372;47.080;15.410;2022-10-29T15:31:02;18.60;99.90
34095;DHT22;20372;47.080;15.410;2022-10-29T15:33:28;18.40;99.90
34095;DHT22;20372;47.080;15.410;2022-10-29T15:35:58;18.20;99.90
34095;DHT22;20372;47.080;15.410;2022-10-29T15:43:38;17.90;99.90
34095;DHT22;20372;47.080;15.410;2022-10-29T15:46:11;17.80;99.90
34095;DHT22;20372;47.080;15.410;2022-10-29T15:48:44;18.30;99.90
34095;DHT22;20372;47.080;15.410;2022-10-29T15:51:10;17.50;99.90
34095;DHT22;20372;47.080;15.410;2022-10-29T15:53:36;17.40;99.90
34095;DHT22;20372;47.080;15.410;2022-10-29T15:56:01;17.30;99.90
34095;DHT22;20372;47.080;15.410;2022-10-29T15:58:28;17.10;99.90
34095;DHT22;20372;47.080;15.410;2022-10-29T16:00:53;17.10;99.90
34095;DHT22;20372;47.080;15.410;2022-10-29T16:03:20;16.80;99.90
34095;DHT22;20372;47.080;15.410;2022-10-29T16:05:59;16.80;99.90
34095;DHT22;20372;47.080;15.410;2022-10-29T16:11:00;16.60;99.90
34095;DHT22;20372;47.080;15.410;2022-10-29T16:13:27;16.60;99.90
34095;DHT22;20372;47.080;15.410;2022-10-29T16:15:53;16.50;99.90
34095;DHT22;20372;47.080;15.410;2022-10-29T16:18:19;16.40;99.90
34095;DHT22;20372;47.080;15.410;2022-10-29T16:20:45;16.20;99.90
34095;DHT22;20372;47.080;15.410;2022-10-29T16:23:11;16.20;99.90
34095;DHT22;20372;47.080;15.410;2022-10-29T16:25:37;16.10;99.90
34095;DHT22;20372;47.080;15.410;2022-10-29T16:28:02;16.10;99.90
34095;DHT22;20372;47.080;15.410;2022-10-29T16:30:28;15.90;99.90
34095;DHT22;20372;47.080;15.410;2022-10-29T16:32:54;15.80;99.90
34095;DHT22;20372;47.080;15.410;2022-10-29T16:35:21;15.70;99.90
34095;DHT22;20372;47.080;15.410;2022-10-29T16:37:47;15.70;99.90
34095;DHT22;20372;47.080;15.410;2022-10-29T16:40:13;15.70;99.90
34095;DHT22;20372;47.080;15.410;2022-10-29T16:42:39;15.60;99.90
34095;DHT22;20372;47.080;15.410;2022-10-29T16:45:05;15.40;99.90
34095;DHT22;20372;47.080;15.410;2022-10-29T16:47:31;15.20;99.90
34095;DHT22;20372;47.080;15.410;2022-10-29T16:49:57;15.10;99.90
34095;DHT22;20372;47.080;15.410;2022-10-29T16:52:23;15.20;99.90
34095;DHT22;20372;47.080;15.410;2022-10-29T16:54:48;15.20;99.90
34095;DHT22;20372;47.080;15.410;2022-10-29T16:57:14;15.10;99.90
34095;DHT22;20372;47.080;15.410;2022-10-29T16:59:39;15.10;99.90
34095;DHT22;20372;47.080;15.410;2022-10-29T17:02:05;15.00;99.90
34095;DHT22;20372;47.080;15.410;2022-10-29T17:04:31;14.90;99.90
34095;DHT22;20372;47.080;15.410;2022-10-29T17:06:56;14.90;99.90
34095;DHT22;20372;47.080;15.410;2022-10-29T17:09:22;14.90;99.90
34095;DHT22;20372;47.080;15.410;2022-10-29T17:11:48;14.90;99.90
34095;DHT22;20372;47.080;15.410;2022-10-29T17:14:13;14.80;99.90
34095;DHT22;20372;47.080;15.410;2022-10-29T17:16:39;14.80;99.90
34095;DHT22;20372;47.080;15.410;2022-10-29T17:19:04;14.80;99.90
34095;DHT22;20372;47.080;15.410;2022-10-29T17:21:30;14.90;99.90
34095;DHT22;20372;47.080;15.410;2022-10-29T17:23:57;15.00;99.90
34095;DHT22;20372;47.080;15.410;2022-10-29T17:26:23;15.40;99.90
34095;DHT22;20372;47.080;15.410;2022-10-29T17:28:48;14.90;99.90
34095;DHT22;20372;47.080;15.410;2022-10-29T17:31:14;14.80;99.90
34095;DHT22;20372;47.080;15.410;2022-10-29T17:33:40;14.70;99.90
34095;DHT22;20372;47.080;15.410;2022-10-29T17:36:06;14.60;99.90
34095;DHT22;20372;47.080;15.410;2022-10-29T17:38:33;14.60;99.90
34095;DHT22;20372;47.080;15.410;2022-10-29T17:40:58;14.40;99.90
34095;DHT22;20372;47.080;15.410;2022-10-29T17:43:24;14.30;99.90
34095;DHT22;20372;47.080;15.410;2022-10-29T17:45:49;14.30;99.90
34095;DHT22;20372;47.080;15.410;2022-10-29T17:48:15;14.20;99.90
34095;DHT22;20372;47.080;15.410;2022-10-29T17:50:41;14.30;99.90
34095;DHT22;20372;47.080;15.410;2022-10-29T17:53:15;14.20;99.90
34095;DHT22;20372;47.080;15.410;2022-10-29T17:55:40;14.30;99.90
34095;DHT22;20372;47.080;15.410;2022-10-29T17:58:06;14.30;99.90
34095;DHT22;20372;47.080;15.410;2022-10-29T18:00:32;14.40;99.90
34095;DHT22;20372;47.080;15.410;2022-10-29T18:02:57;14.50;99.90
34095;DHT22;20372;47.080;15.410;2022-10-29T18:05:23;14.60;99.90
34095;DHT22;20372;47.080;15.410;2022-10-29T18:07:48;14.70;99.90
34095;DHT22;20372;47.080;15.410;2022-10-29T18:10:14;14.70;99.90